createdAt,value
2023-02-16T00:01:54.114Z,57.47
2023-02-16T00:04:27.110Z,63.35
2023-02-16T00:06:54.907Z,63.40
2023-02-16T00:09:22.875Z,56.13
2023-02-16T00:12:23.748Z,58.75
2023-02-16T00:14:50.310Z,51.65
2023-02-16T00:17:16.852Z,56.60
2023-02-16T00:19:43.433Z,59.72
2023-02-16T00:22:11.418Z,58.65
2023-02-16T00:24:38.014Z,55.95
2023-02-16T00:27:13.238Z,57.22
2023-02-16T00:29:39.835Z,61.03
2023-02-16T00:32:12.644Z,58.38
2023-02-16T00:34:43.033Z,60.13
2023-02-16T00:37:12.132Z,59.70
2023-02-16T00:39:40.299Z,62.42
2023-02-16T00:42:21.341Z,52.67
2023-02-16T00:44:54.169Z,54.80
2023-02-16T00:47:27.608Z,53.50
2023-02-16T00:49:56.407Z,51.03
2023-02-16T00:52:33.884Z,61.20
2023-02-16T00:55:04.040Z,57.70
2023-02-16T00:57:35.562Z,56.90
2023-02-16T01:00:13.083Z,55.55
2023-02-16T01:02:39.677Z,57.63
2023-02-16T01:05:06.738Z,62.00
2023-02-16T01:07:54.823Z,68.32
2023-02-16T01:10:40.021Z,58.63
2023-02-16T01:13:06.850Z,58.00
2023-02-16T01:15:34.711Z,62.38
2023-02-16T01:18:01.452Z,58.63
2023-02-16T01:20:28.747Z,63.90
2023-02-16T01:22:55.447Z,66.00
2023-02-16T01:25:22.198Z,68.15
2023-02-16T01:27:48.812Z,67.05
2023-02-16T01:30:22.784Z,60.10
2023-02-16T01:32:51.773Z,63.95
2023-02-16T01:35:20.464Z,61.47
2023-02-16T01:37:47.317Z,62.05
2023-02-16T01:40:35.106Z,60.13
2023-02-16T01:43:10.746Z,62.53
2023-02-16T01:45:43.177Z,61.75
2023-02-16T01:48:22.200Z,58.72
2023-02-16T01:51:20.491Z,61.45
2023-02-16T01:54:06.732Z,64.13
2023-02-16T01:56:41.722Z,58.88
2023-02-16T01:59:18.031Z,62.88
2023-02-16T02:02:12.119Z,61.50
2023-02-16T02:05:10.298Z,66.35
2023-02-16T02:08:30.887Z,59.55
2023-02-16T02:11:23.863Z,66.75
2023-02-16T02:14:01.006Z,61.40
2023-02-16T02:18:55.217Z,69.53
2023-02-16T02:22:17.610Z,60.35
2023-02-16T02:25:06.206Z,63.03
2023-02-16T02:27:57.316Z,62.85
2023-02-16T02:30:31.660Z,66.53
2023-02-16T02:32:58.210Z,64.18
2023-02-16T02:35:37.125Z,68.38
2023-02-16T02:38:41.830Z,62.45
2023-02-16T02:41:53.224Z,60.65
2023-02-16T02:44:27.030Z,64.53
2023-02-16T02:46:53.761Z,61.15
2023-02-16T02:49:20.331Z,65.15
2023-02-16T02:51:47.568Z,64.97
2023-02-16T02:54:38.912Z,66.88
2023-02-16T02:57:40.088Z,62.45
2023-02-16T03:00:32.000Z,61.92
2023-02-16T03:03:04.236Z,67.63
2023-02-16T03:05:32.981Z,64.85
2023-02-16T03:08:13.975Z,65.32
2023-02-16T03:11:05.603Z,61.50
2023-02-16T03:13:39.383Z,60.88
2023-02-16T03:16:12.316Z,65.60
2023-02-16T03:18:59.839Z,63.33
2023-02-16T03:21:46.980Z,59.63
2023-02-16T03:24:45.154Z,68.88
2023-02-16T03:27:32.934Z,60.10
2023-02-16T03:30:01.275Z,64.10
2023-02-16T03:32:28.038Z,70.72
2023-02-16T03:34:54.650Z,66.25
2023-02-16T03:37:21.201Z,66.60
2023-02-16T03:40:07.774Z,59.50
2023-02-16T03:42:34.351Z,64.40
2023-02-16T03:45:00.904Z,55.90
2023-02-16T03:47:27.503Z,59.50
2023-02-16T03:49:54.067Z,69.80
2023-02-16T03:52:20.659Z,68.35
2023-02-16T03:54:47.199Z,68.35
2023-02-16T03:57:13.809Z,64.70
2023-02-16T03:59:40.323Z,70.15
2023-02-16T04:02:06.903Z,64.25
2023-02-16T04:04:33.572Z,63.33
2023-02-16T04:07:00.151Z,64.53
2023-02-16T04:09:26.671Z,66.90
2023-02-16T04:12:11.762Z,63.10
2023-02-16T04:14:38.250Z,70.20
2023-02-16T04:17:04.812Z,62.20
2023-02-16T04:19:31.322Z,63.08
2023-02-16T04:21:57.801Z,70.95
2023-02-16T04:24:24.283Z,60.55
2023-02-16T04:26:50.880Z,59.30
2023-02-16T04:29:17.427Z,67.72
2023-02-16T04:31:44.137Z,56.78
2023-02-16T04:34:10.907Z,63.65
2023-02-16T04:36:37.455Z,70.63
2023-02-16T04:39:04.398Z,60.28
2023-02-16T04:41:30.958Z,66.45
2023-02-16T04:43:57.649Z,63.80
2023-02-16T04:46:24.490Z,63.88
2023-02-16T04:48:51.007Z,61.25
2023-02-16T04:51:17.565Z,66.35
2023-02-16T04:53:44.323Z,68.65
2023-02-16T04:56:11.935Z,63.95
2023-02-16T04:58:38.723Z,68.90
2023-02-16T05:01:05.749Z,60.63
2023-02-16T05:03:33.097Z,65.25
2023-02-16T05:05:59.919Z,64.47
2023-02-16T05:08:26.776Z,67.00
2023-02-16T05:11:12.142Z,71.15
2023-02-16T05:13:57.216Z,66.63
2023-02-16T05:16:24.429Z,56.05
2023-02-16T05:18:51.055Z,65.50
2023-02-16T05:21:32.694Z,72.43
2023-02-16T05:23:59.796Z,63.90
2023-02-16T05:26:27.012Z,58.25
2023-02-16T05:28:53.922Z,66.68
2023-02-16T05:31:21.398Z,62.17
2023-02-16T05:33:48.088Z,64.22
2023-02-16T05:36:14.747Z,72.70
2023-02-16T05:38:41.648Z,60.17
2023-02-16T05:41:08.158Z,69.05
2023-02-16T05:43:34.918Z,55.60
2023-02-16T05:46:08.258Z,61.92
2023-02-16T05:48:34.853Z,61.03
2023-02-16T05:51:01.850Z,58.92
2023-02-16T05:53:28.595Z,69.15
2023-02-16T05:55:55.084Z,64.45
2023-02-16T05:58:21.680Z,62.90
2023-02-16T06:00:48.164Z,67.28
2023-02-16T06:03:14.651Z,64.75
2023-02-16T06:05:41.268Z,61.03
2023-02-16T06:08:08.134Z,67.18
2023-02-16T06:10:34.680Z,62.97
2023-02-16T06:13:01.180Z,60.90
2023-02-16T06:15:27.991Z,59.83
2023-02-16T06:17:54.605Z,60.85
2023-02-16T06:20:21.096Z,58.60
2023-02-16T06:22:47.667Z,67.95
2023-02-16T06:25:14.208Z,62.15
2023-02-16T06:27:40.698Z,58.80
2023-02-16T06:30:08.629Z,62.63
2023-02-16T06:32:35.214Z,59.72
2023-02-16T06:35:01.745Z,62.28
2023-02-16T06:37:28.313Z,61.33
2023-02-16T06:39:54.784Z,63.63
2023-02-16T06:42:21.526Z,56.45
2023-02-16T06:44:48.064Z,51.13
2023-02-16T06:47:14.596Z,60.03
2023-02-16T06:49:41.149Z,52.17
2023-02-16T06:52:08.048Z,54.97
2023-02-16T06:54:34.605Z,50.47
2023-02-16T06:57:01.124Z,58.15
2023-02-16T06:59:27.602Z,51.38
2023-02-16T07:01:54.116Z,58.65
2023-02-16T07:04:20.684Z,57.88
2023-02-16T07:06:47.258Z,57.63
2023-02-16T07:09:13.789Z,60.35
2023-02-16T07:11:40.587Z,56.00
2023-02-16T07:14:07.121Z,50.55
2023-02-16T07:16:33.687Z,61.22
2023-02-16T07:19:00.212Z,61.08
2023-02-16T07:21:26.806Z,54.03
2023-02-16T07:23:53.366Z,57.20
2023-02-16T07:26:19.898Z,54.80
2023-02-16T07:28:46.457Z,57.63
2023-02-16T07:31:15.200Z,52.92
2023-02-16T07:33:42.530Z,56.80
2023-02-16T07:36:10.613Z,56.65
2023-02-16T07:38:37.679Z,57.33
2023-02-16T07:41:07.803Z,58.92
2023-02-16T07:43:35.735Z,52.70
2023-02-16T07:46:02.308Z,58.53
2023-02-16T07:48:28.868Z,57.58
2023-02-16T07:50:55.430Z,52.58
2023-02-16T07:53:22.005Z,54.85
2023-02-16T07:55:48.616Z,53.30
2023-02-16T07:58:27.391Z,53.95
2023-02-16T08:00:56.544Z,54.50
2023-02-16T08:03:24.096Z,53.63
2023-02-16T08:05:50.772Z,51.08
2023-02-16T08:08:17.331Z,53.63
2023-02-16T08:10:43.916Z,47.58
2023-02-16T08:13:10.445Z,53.30
2023-02-16T08:15:36.949Z,46.65
2023-02-16T08:18:03.837Z,47.25
2023-02-16T08:20:48.245Z,47.28
2023-02-16T08:23:16.869Z,52.50
2023-02-16T08:25:44.005Z,42.75
2023-02-16T08:28:14.652Z,51.55
2023-02-16T08:30:41.133Z,45.42
2023-02-16T08:33:07.637Z,43.40
2023-02-16T08:35:38.463Z,47.67
2023-02-16T08:38:07.691Z,43.72
2023-02-16T08:40:34.152Z,42.78
2023-02-16T08:43:00.630Z,45.25
2023-02-16T08:45:27.270Z,44.30
2023-02-16T08:47:54.034Z,47.67
2023-02-16T08:50:20.584Z,43.67
2023-02-16T08:52:47.269Z,51.30
2023-02-16T08:55:13.985Z,43.55
2023-02-16T08:57:40.746Z,41.30
2023-02-16T09:00:26.321Z,41.78
2023-02-16T09:02:52.806Z,45.08
2023-02-16T09:05:19.331Z,44.75
2023-02-16T09:07:45.827Z,43.42
2023-02-16T09:10:12.751Z,46.15
2023-02-16T09:12:39.295Z,43.63
2023-02-16T09:15:05.956Z,46.00
2023-02-16T09:17:32.558Z,44.63
2023-02-16T09:19:59.047Z,46.15
2023-02-16T09:22:25.710Z,40.95
2023-02-16T09:24:52.699Z,45.80
2023-02-16T09:27:20.104Z,44.75
2023-02-16T09:29:46.641Z,41.78
2023-02-16T09:32:13.153Z,43.20
2023-02-16T09:34:39.688Z,42.88
2023-02-16T09:37:06.323Z,46.40
2023-02-16T09:39:33.693Z,44.63
2023-02-16T09:42:11.653Z,44.33
2023-02-16T09:44:44.497Z,43.00
2023-02-16T09:47:26.130Z,46.08
2023-02-16T09:49:56.387Z,45.60
2023-02-16T09:52:36.919Z,39.47
2023-02-16T09:55:13.112Z,44.58
2023-02-16T09:58:11.161Z,44.50
2023-02-16T10:01:05.497Z,43.22
2023-02-16T10:03:55.423Z,42.67
2023-02-16T10:06:33.882Z,49.33
2023-02-16T10:09:12.590Z,43.40
2023-02-16T10:11:49.529Z,44.42
2023-02-16T10:14:33.569Z,41.60
2023-02-16T10:17:19.151Z,46.22
2023-02-16T10:20:24.835Z,42.78
2023-02-16T10:22:57.797Z,43.45
2023-02-16T10:25:32.965Z,40.55
2023-02-16T10:28:15.965Z,43.40
2023-02-16T10:30:52.087Z,53.95
2023-02-16T10:33:42.064Z,43.40
2023-02-16T10:36:27.350Z,45.28
2023-02-16T10:39:18.220Z,49.25
2023-02-16T10:41:50.568Z,47.80
2023-02-16T10:44:25.990Z,50.63
2023-02-16T10:47:00.455Z,47.00
2023-02-16T10:49:29.667Z,48.20
2023-02-16T10:51:57.483Z,51.35
2023-02-16T10:54:27.267Z,44.72
2023-02-16T10:56:59.515Z,44.58
2023-02-16T10:59:33.745Z,46.95
2023-02-16T11:02:04.212Z,43.80
2023-02-16T11:04:34.575Z,50.72
2023-02-16T11:07:10.732Z,47.30
2023-02-16T11:09:38.359Z,43.33
2023-02-16T11:12:23.463Z,45.88
2023-02-16T11:14:53.757Z,48.42
2023-02-16T11:17:22.543Z,47.20
2023-02-16T11:20:05.480Z,44.30
2023-02-16T11:25:22.024Z,53.78
2023-02-16T11:28:07.057Z,43.70
2023-02-16T11:30:38.219Z,53.40
2023-02-16T11:33:22.203Z,49.08
2023-02-16T11:35:49.248Z,41.42
2023-02-16T11:38:34.259Z,47.40
2023-02-16T11:41:03.727Z,46.45
2023-02-16T11:43:38.621Z,52.30
2023-02-16T11:46:14.637Z,50.08
2023-02-16T11:48:41.275Z,48.75
2023-02-16T11:51:09.444Z,48.70
2023-02-16T11:53:40.556Z,52.97
2023-02-16T11:56:23.147Z,50.40
2023-02-16T11:59:21.679Z,51.88
2023-02-16T12:02:12.293Z,47.60
2023-02-16T12:04:54.064Z,51.08
2023-02-16T12:07:40.312Z,53.65
2023-02-16T12:10:19.970Z,48.75
2023-02-16T12:12:46.501Z,47.67
2023-02-16T12:15:34.933Z,48.78
2023-02-16T12:18:26.844Z,56.08
2023-02-16T12:21:11.482Z,50.15
2023-02-16T12:24:09.265Z,45.10
2023-02-16T12:26:40.854Z,51.88
2023-02-16T12:29:26.203Z,46.83
2023-02-16T12:32:10.544Z,49.33
2023-02-16T12:34:59.560Z,51.45
2023-02-16T12:37:47.931Z,47.45
2023-02-16T12:40:36.256Z,46.70
2023-02-16T12:43:21.635Z,42.95
2023-02-16T12:45:49.610Z,45.72
2023-02-16T12:48:41.708Z,46.65
2023-02-16T12:51:20.209Z,44.70
2023-02-16T12:54:04.303Z,46.75
2023-02-16T12:56:42.553Z,45.75
2023-02-16T12:59:46.984Z,47.05
2023-02-16T13:02:36.434Z,44.88
2023-02-16T13:05:09.558Z,40.30
2023-02-16T13:07:42.997Z,39.65
2023-02-16T13:10:38.374Z,37.55
2023-02-16T13:13:09.287Z,38.85
2023-02-16T13:15:58.513Z,41.08
2023-02-16T13:18:32.347Z,31.90
2023-02-16T13:21:21.875Z,40.13
2023-02-16T13:24:13.297Z,33.67
2023-02-16T13:27:05.685Z,34.13
2023-02-16T13:29:52.671Z,31.77
2023-02-16T13:32:45.139Z,31.58
2023-02-16T13:35:48.626Z,32.28
2023-02-16T13:38:50.974Z,37.60
2023-02-16T13:41:41.697Z,30.35
2023-02-16T13:44:14.596Z,36.38
2023-02-16T13:46:50.079Z,36.25
2023-02-16T13:49:42.368Z,30.65
2023-02-16T13:52:11.855Z,35.85
2023-02-16T13:54:41.896Z,31.83
2023-02-16T13:57:13.313Z,30.80
2023-02-16T13:59:39.729Z,35.33
2023-02-16T14:02:12.997Z,29.45
2023-02-16T14:04:39.613Z,34.58
2023-02-16T14:07:10.228Z,30.25
2023-02-16T14:09:36.778Z,34.25
2023-02-16T14:12:17.553Z,33.58
2023-02-16T14:14:58.898Z,32.97
2023-02-16T14:17:29.174Z,31.55
2023-02-16T14:20:00.604Z,33.78
2023-02-16T14:22:33.245Z,32.95
2023-02-16T14:27:47.447Z,31.75
2023-02-16T14:30:31.202Z,31.98
2023-02-16T14:33:12.997Z,31.40
2023-02-16T14:35:42.854Z,29.13
2023-02-16T14:38:27.520Z,26.05
2023-02-16T14:41:03.240Z,27.80
2023-02-16T14:43:42.787Z,28.52
2023-02-16T14:46:42.342Z,25.13
2023-02-16T14:49:29.009Z,23.40
2023-02-16T14:52:28.658Z,23.10
2023-02-16T14:55:01.716Z,24.25
2023-02-16T14:57:37.879Z,23.98
2023-02-16T15:00:13.494Z,25.92
2023-02-16T15:02:54.089Z,23.08
2023-02-16T15:05:29.579Z,22.55
2023-02-16T15:08:25.279Z,22.75
2023-02-16T15:10:56.167Z,23.05
2023-02-16T15:13:27.999Z,23.40
2023-02-16T15:15:57.660Z,26.65
2023-02-16T15:18:28.356Z,24.55
2023-02-16T15:20:57.362Z,25.83
2023-02-16T15:23:29.458Z,23.27
2023-02-16T15:26:02.996Z,25.33
2023-02-16T15:28:39.305Z,20.55
2023-02-16T15:31:18.585Z,21.52
2023-02-16T15:34:00.602Z,23.83
2023-02-16T15:36:42.540Z,20.40
2023-02-16T15:39:15.148Z,24.60
2023-02-16T15:44:35.419Z,23.30
2023-02-16T15:47:16.551Z,22.92
2023-02-16T15:49:43.848Z,23.15
2023-02-16T15:52:17.858Z,20.95
2023-02-16T15:54:46.631Z,25.10
2023-02-16T15:57:30.862Z,25.10
2023-02-16T16:00:00.580Z,24.05
2023-02-16T16:02:36.385Z,22.70
2023-02-16T16:05:05.879Z,25.95
2023-02-16T16:07:39.912Z,24.40
2023-02-16T16:10:19.880Z,24.55
2023-02-16T16:12:48.902Z,26.90
2023-02-16T16:15:22.804Z,25.48
2023-02-16T16:17:51.237Z,28.30
2023-02-16T16:20:29.263Z,30.63
2023-02-16T16:23:04.450Z,27.83
2023-02-16T16:25:34.048Z,28.08
2023-02-16T16:28:01.846Z,26.45
2023-02-16T16:30:32.029Z,29.33
2023-02-16T16:33:07.564Z,26.70
2023-02-16T16:35:38.471Z,30.35
2023-02-16T16:38:07.664Z,28.80
2023-02-16T16:40:36.785Z,30.20
2023-02-16T16:43:03.257Z,28.05
2023-02-16T16:45:44.779Z,34.35
2023-02-16T16:48:31.699Z,27.38
2023-02-16T16:51:16.877Z,27.08
2023-02-16T16:54:06.263Z,33.55
2023-02-16T16:56:39.333Z,34.50
2023-02-16T16:59:06.643Z,30.70
2023-02-16T17:01:34.061Z,34.72
2023-02-16T17:04:00.812Z,32.33
2023-02-16T17:06:27.625Z,32.47
2023-02-16T17:08:55.231Z,37.20
2023-02-16T17:11:27.545Z,34.63
2023-02-16T17:13:55.673Z,32.42
2023-02-16T17:16:31.378Z,35.88
2023-02-16T17:18:58.019Z,37.72
2023-02-16T17:21:24.550Z,32.40
2023-02-16T17:23:53.362Z,32.17
2023-02-16T17:26:21.972Z,35.80
2023-02-16T17:28:48.818Z,33.97
2023-02-16T17:31:15.973Z,34.40
2023-02-16T17:33:42.727Z,36.25
2023-02-16T17:36:14.145Z,38.85
2023-02-16T17:38:40.701Z,33.80
2023-02-16T17:41:19.022Z,34.72
2023-02-16T17:43:45.680Z,37.40
2023-02-16T17:46:13.335Z,33.83
2023-02-16T17:48:40.812Z,37.40
2023-02-16T17:51:15.002Z,30.23
2023-02-16T17:53:41.760Z,35.42
2023-02-16T17:56:16.557Z,31.27
2023-02-16T17:58:43.768Z,33.53
2023-02-16T18:01:13.832Z,32.13
2023-02-16T18:03:40.523Z,37.33
2023-02-16T18:06:07.503Z,34.30
2023-02-16T18:08:34.130Z,37.08
2023-02-16T18:11:03.624Z,37.75
2023-02-16T18:13:30.970Z,37.25
2023-02-16T18:15:59.114Z,35.85
2023-02-16T18:18:25.809Z,37.38
2023-02-16T18:20:52.328Z,36.50
2023-02-16T18:23:18.874Z,32.97
2023-02-16T18:25:45.767Z,32.15
2023-02-16T18:28:27.103Z,31.23
2023-02-16T18:30:53.934Z,32.00
2023-02-16T18:33:21.809Z,35.78
2023-02-16T18:35:54.013Z,32.63
2023-02-16T18:38:22.079Z,36.45
2023-02-16T18:40:49.649Z,33.33
2023-02-16T18:43:16.205Z,39.78
2023-02-16T18:45:42.875Z,32.58
2023-02-16T18:48:10.297Z,33.08
2023-02-16T18:50:36.922Z,34.10
2023-02-16T18:53:03.849Z,31.35
2023-02-16T18:55:33.068Z,31.08
2023-02-16T18:58:00.977Z,27.58
2023-02-16T19:00:28.203Z,32.30
2023-02-16T19:02:55.877Z,30.75
2023-02-16T19:05:22.994Z,34.03
2023-02-16T19:07:49.665Z,33.58
2023-02-16T19:10:16.683Z,31.02
2023-02-16T19:12:43.197Z,32.67
2023-02-16T19:15:09.819Z,30.95
2023-02-16T19:17:38.488Z,32.95
2023-02-16T19:20:09.680Z,38.72
2023-02-16T19:22:37.268Z,34.33
2023-02-16T19:25:05.750Z,34.38
2023-02-16T19:27:32.654Z,35.60
2023-02-16T19:29:59.355Z,44.75
2023-02-16T19:32:25.948Z,33.78
2023-02-16T19:34:52.468Z,35.55
2023-02-16T19:37:19.122Z,31.90
2023-02-16T19:39:45.648Z,31.02
2023-02-16T19:42:12.138Z,40.72
2023-02-16T19:44:39.734Z,30.27
2023-02-16T19:47:06.707Z,31.98
2023-02-16T19:49:35.052Z,34.92
2023-02-16T19:52:03.981Z,36.67
2023-02-16T19:54:34.634Z,35.22
2023-02-16T19:57:02.229Z,31.98
2023-02-16T19:59:29.166Z,41.33
2023-02-16T20:01:55.752Z,39.08
2023-02-16T20:04:22.335Z,37.72
2023-02-16T20:06:49.617Z,36.45
2023-02-16T20:09:17.919Z,40.60
2023-02-16T20:11:44.860Z,36.08
2023-02-16T20:14:12.387Z,40.88
2023-02-16T20:16:39.839Z,41.78
2023-02-16T20:19:06.499Z,36.58
2023-02-16T20:21:33.448Z,37.78
2023-02-16T20:24:02.566Z,34.70
2023-02-16T20:26:41.534Z,41.13
2023-02-16T20:29:10.839Z,36.25
2023-02-16T20:31:47.690Z,33.40
2023-02-16T20:34:14.951Z,38.53
2023-02-16T20:36:41.526Z,38.90
2023-02-16T20:39:08.280Z,34.63
2023-02-16T20:41:34.811Z,41.70
2023-02-16T20:44:02.843Z,41.05
2023-02-16T20:46:29.834Z,34.83
2023-02-16T20:48:56.501Z,31.55
2023-02-16T20:51:23.078Z,35.17
2023-02-16T20:53:49.720Z,34.30
2023-02-16T20:56:21.150Z,32.67
2023-02-16T20:58:49.748Z,38.33
2023-02-16T21:01:19.286Z,37.38
2023-02-16T21:03:45.989Z,35.45
2023-02-16T21:06:12.489Z,33.15
2023-02-16T21:08:39.056Z,39.28
2023-02-16T21:11:05.687Z,37.85
2023-02-16T21:13:32.862Z,35.28
2023-02-16T21:15:59.422Z,36.15
2023-02-16T21:18:26.183Z,35.08
2023-02-16T21:20:52.719Z,36.42
2023-02-16T21:23:19.345Z,37.22
2023-02-16T21:25:45.920Z,33.15
2023-02-16T21:28:12.935Z,35.90
2023-02-16T21:30:41.362Z,33.60
2023-02-16T21:33:07.902Z,35.33
2023-02-16T21:35:34.531Z,34.72
2023-02-16T21:38:01.449Z,38.83
2023-02-16T21:40:46.672Z,35.58
2023-02-16T21:43:13.207Z,35.03
2023-02-16T21:45:39.710Z,37.42
2023-02-16T21:48:24.925Z,37.60
2023-02-16T21:50:51.542Z,37.05
2023-02-16T21:53:18.054Z,38.72
2023-02-16T21:56:03.409Z,37.58
2023-02-16T21:58:33.597Z,42.50
2023-02-16T22:01:00.464Z,42.53
2023-02-16T22:03:27.793Z,37.45
2023-02-16T22:05:54.321Z,36.78
2023-02-16T22:08:20.925Z,40.42
2023-02-16T22:10:47.403Z,39.75
2023-02-16T22:13:13.867Z,38.70
2023-02-16T22:15:40.442Z,35.60
2023-02-16T22:18:07.155Z,40.50
2023-02-16T22:20:33.832Z,37.10
2023-02-16T22:23:00.320Z,39.10
2023-02-16T22:25:26.953Z,41.85
2023-02-16T22:27:53.531Z,38.25
2023-02-16T22:30:20.247Z,39.40
2023-02-16T22:32:48.672Z,37.30
2023-02-16T22:35:15.313Z,34.60
2023-02-16T22:37:41.805Z,38.72
2023-02-16T22:40:08.571Z,35.75
2023-02-16T22:42:36.208Z,42.28
2023-02-16T22:45:03.563Z,32.97
2023-02-16T22:47:31.174Z,34.90
2023-02-16T22:49:57.656Z,33.33
2023-02-16T22:52:24.216Z,36.72
2023-02-16T22:54:51.654Z,31.58
2023-02-16T22:57:18.712Z,32.85
2023-02-16T22:59:45.516Z,32.17
2023-02-16T23:02:12.049Z,30.35
2023-02-16T23:04:38.714Z,32.58
2023-02-16T23:07:05.584Z,30.60
2023-02-16T23:09:32.303Z,34.47
2023-02-16T23:11:58.983Z,35.67
2023-02-16T23:14:26.036Z,31.60
2023-02-16T23:16:54.689Z,32.13
2023-02-16T23:19:24.919Z,29.40
2023-02-16T23:21:52.183Z,28.13
2023-02-16T23:24:21.659Z,29.15
2023-02-16T23:26:48.502Z,29.15
2023-02-16T23:29:15.118Z,25.58
2023-02-16T23:31:43.410Z,28.10
2023-02-16T23:34:11.483Z,27.77
2023-02-16T23:36:38.096Z,24.52
2023-02-16T23:39:11.672Z,26.88
2023-02-16T23:41:38.683Z,27.15
2023-02-16T23:44:06.146Z,24.20
2023-02-16T23:46:32.772Z,23.70
2023-02-16T23:48:59.340Z,25.17
2023-02-16T23:51:26.325Z,22.92
2023-02-16T23:53:53.134Z,25.08
2023-02-16T23:56:24.964Z,25.17
2023-02-16T23:58:52.254Z,25.40
